createdAt,value
2022-08-26T00:01:48.979Z,19.57
2022-08-26T00:04:32.447Z,19.58
2022-08-26T00:07:15.539Z,19.58
2022-08-26T00:09:59.963Z,19.55
2022-08-26T00:12:43.389Z,19.53
2022-08-26T00:15:26.773Z,19.52
2022-08-26T00:18:12.402Z,19.52
2022-08-26T00:21:06.296Z,19.55
2022-08-26T00:23:49.764Z,19.56
2022-08-26T00:26:34.946Z,19.60
2022-08-26T00:29:18.418Z,19.60
2022-08-26T00:32:02.708Z,19.58
2022-08-26T00:34:47.217Z,19.55
2022-08-26T00:37:30.529Z,19.52
2022-08-26T00:40:16.485Z,19.52
2022-08-26T00:43:02.399Z,19.51
2022-08-26T00:45:56.545Z,19.47
2022-08-26T00:48:42.941Z,19.43
2022-08-26T00:51:29.994Z,19.37
2022-08-26T00:54:14.139Z,19.34
2022-08-26T00:57:00.316Z,19.32
2022-08-26T00:59:46.954Z,19.32
2022-08-26T01:02:30.922Z,19.32
2022-08-26T01:05:14.134Z,19.32
2022-08-26T01:07:57.265Z,19.33
2022-08-26T01:10:40.765Z,19.35
2022-08-26T01:13:24.756Z,19.37
2022-08-26T01:16:13.815Z,19.37
2022-08-26T01:19:02.201Z,19.39
2022-08-26T01:21:51.138Z,19.38
2022-08-26T01:24:36.645Z,19.41
2022-08-26T01:27:22.157Z,19.40
2022-08-26T01:30:07.678Z,19.40
2022-08-26T01:32:51.592Z,19.39
2022-08-26T01:35:34.777Z,19.37
2022-08-26T01:38:18.977Z,19.36
2022-08-26T01:41:04.433Z,19.39
2022-08-26T01:44:00.962Z,19.41
2022-08-26T01:46:45.678Z,19.43
2022-08-26T01:49:30.147Z,19.43
2022-08-26T01:52:22.006Z,19.45
2022-08-26T01:55:05.958Z,19.43
2022-08-26T01:57:56.218Z,19.38
2022-08-26T02:00:39.677Z,19.38
2022-08-26T02:03:22.841Z,19.34
2022-08-26T02:06:09.227Z,19.31
2022-08-26T02:08:56.399Z,19.31
2022-08-26T02:11:39.935Z,19.32
2022-08-26T02:14:29.149Z,19.35
2022-08-26T02:17:12.314Z,19.37
2022-08-26T02:19:56.730Z,19.36
2022-08-26T02:22:41.352Z,19.34
2022-08-26T02:25:33.275Z,19.32
2022-08-26T02:28:17.675Z,19.37
2022-08-26T02:31:04.390Z,19.40
2022-08-26T02:33:47.727Z,19.41
2022-08-26T02:36:30.796Z,19.42
2022-08-26T02:39:18.011Z,19.43
2022-08-26T02:42:06.509Z,19.44
2022-08-26T02:44:49.741Z,19.44
2022-08-26T02:47:35.096Z,19.43
2022-08-26T02:50:18.325Z,19.41
2022-08-26T02:53:01.384Z,19.39
2022-08-26T02:55:45.558Z,19.39
2022-08-26T02:58:31.746Z,19.37
2022-08-26T03:01:22.062Z,19.37
2022-08-26T03:04:09.573Z,19.40
2022-08-26T03:06:53.491Z,19.41
2022-08-26T03:09:38.622Z,19.42
2022-08-26T03:12:23.176Z,19.42
2022-08-26T03:15:15.927Z,19.42
2022-08-26T03:18:00.945Z,19.41
2022-08-26T03:20:45.545Z,19.41
2022-08-26T03:23:28.584Z,19.38
2022-08-26T03:26:14.871Z,19.35
2022-08-26T03:29:15.918Z,19.33
2022-08-26T03:32:01.589Z,19.30
2022-08-26T03:34:46.352Z,19.28
2022-08-26T03:37:31.405Z,19.29
2022-08-26T03:40:14.619Z,19.31
2022-08-26T03:42:57.705Z,19.31
2022-08-26T03:45:40.954Z,19.32
2022-08-26T03:48:25.677Z,19.31
2022-08-26T03:51:13.207Z,19.28
2022-08-26T03:53:57.694Z,19.25
2022-08-26T03:56:40.843Z,19.21
2022-08-26T03:59:24.947Z,19.18
2022-08-26T04:02:08.616Z,19.16
2022-08-26T04:04:54.832Z,19.16
2022-08-26T04:07:37.837Z,19.16
2022-08-26T04:10:28.671Z,19.16
2022-08-26T04:13:12.877Z,19.16
2022-08-26T04:15:56.235Z,19.19
2022-08-26T04:18:46.459Z,19.20
2022-08-26T04:21:30.295Z,19.22
2022-08-26T04:24:16.617Z,19.22
2022-08-26T04:27:03.434Z,19.25
2022-08-26T04:29:47.774Z,19.28
2022-08-26T04:32:31.355Z,19.25
2022-08-26T04:35:14.424Z,19.26
2022-08-26T04:37:58.903Z,19.24
2022-08-26T04:40:46.646Z,19.26
2022-08-26T04:43:31.566Z,19.27
2022-08-26T04:46:18.826Z,19.30
2022-08-26T04:49:02.109Z,19.32
2022-08-26T04:51:45.314Z,19.34
2022-08-26T04:54:28.392Z,19.37
2022-08-26T04:57:11.507Z,19.42
2022-08-26T04:59:55.954Z,19.44
2022-08-26T05:02:39.450Z,19.49
2022-08-26T05:05:22.494Z,19.53
2022-08-26T05:08:05.572Z,19.59
2022-08-26T05:10:50.681Z,19.65
2022-08-26T05:13:34.870Z,19.72
2022-08-26T05:16:19.468Z,19.77
2022-08-26T05:19:03.671Z,19.81
2022-08-26T05:21:49.260Z,19.86
2022-08-26T05:24:32.446Z,19.91
2022-08-26T05:27:16.479Z,19.94
2022-08-26T05:30:01.136Z,19.98
2022-08-26T05:32:45.599Z,20.01
2022-08-26T05:35:31.968Z,20.04
2022-08-26T05:38:17.382Z,20.07
2022-08-26T05:41:00.415Z,20.11
2022-08-26T05:43:43.726Z,20.14
2022-08-26T05:46:27.691Z,20.16
2022-08-26T05:49:13.110Z,20.19
2022-08-26T05:51:56.265Z,20.23
2022-08-26T05:54:39.920Z,20.27
2022-08-26T05:57:23.246Z,20.31
2022-08-26T06:00:07.357Z,20.36
2022-08-26T06:02:55.289Z,20.41
2022-08-26T06:05:41.117Z,20.44
2022-08-26T06:08:24.451Z,20.46
2022-08-26T06:11:17.160Z,20.48
2022-08-26T06:14:05.353Z,20.51
2022-08-26T06:16:48.496Z,20.55
2022-08-26T06:19:32.697Z,20.60
2022-08-26T06:22:36.545Z,20.66
2022-08-26T06:25:36.121Z,20.74
2022-08-26T06:28:20.437Z,20.80
2022-08-26T06:31:04.513Z,20.88
2022-08-26T06:33:47.680Z,20.97
2022-08-26T06:36:32.362Z,21.03
2022-08-26T06:39:18.942Z,21.09
2022-08-26T06:42:06.272Z,21.17
2022-08-26T06:44:50.307Z,21.24
2022-08-26T06:47:34.155Z,21.31
2022-08-26T06:50:17.394Z,21.38
2022-08-26T06:53:01.451Z,21.44
2022-08-26T06:55:47.261Z,21.54
2022-08-26T06:58:35.665Z,21.63
2022-08-26T07:01:22.038Z,21.72
2022-08-26T07:04:10.032Z,21.80
2022-08-26T07:06:54.359Z,21.90
2022-08-26T07:09:37.478Z,21.98
2022-08-26T07:12:22.103Z,22.09
2022-08-26T07:15:05.986Z,22.17
2022-08-26T07:17:50.682Z,22.23
2022-08-26T07:20:33.723Z,22.28
2022-08-26T07:23:17.327Z,22.31
2022-08-26T07:26:00.937Z,22.34
2022-08-26T07:28:46.788Z,22.37
2022-08-26T07:31:39.237Z,22.44
2022-08-26T07:34:24.022Z,22.49
2022-08-26T07:37:08.811Z,22.53
2022-08-26T07:39:52.263Z,22.59
2022-08-26T07:42:35.416Z,22.66
2022-08-26T07:45:20.087Z,22.70
2022-08-26T07:48:04.274Z,22.74
2022-08-26T07:50:49.169Z,22.79
2022-08-26T07:53:35.487Z,22.84
2022-08-26T07:56:18.929Z,22.89
2022-08-26T07:59:02.290Z,22.95
2022-08-26T08:01:53.128Z,23.02
2022-08-26T08:04:36.252Z,23.09
2022-08-26T08:07:19.375Z,23.17
2022-08-26T08:10:04.604Z,23.20
2022-08-26T08:12:51.305Z,23.27
2022-08-26T08:15:35.639Z,23.32
2022-08-26T08:18:20.765Z,23.40
2022-08-26T08:21:21.298Z,23.44
2022-08-26T08:24:05.675Z,23.49
2022-08-26T08:26:48.774Z,23.59
2022-08-26T08:29:31.813Z,23.68
2022-08-26T08:32:15.802Z,23.78
2022-08-26T08:35:00.785Z,23.83
2022-08-26T08:37:44.004Z,23.83
2022-08-26T08:40:29.206Z,23.90
2022-08-26T08:43:14.605Z,23.95
2022-08-26T08:46:04.377Z,24.01
2022-08-26T08:48:52.142Z,24.02
2022-08-26T08:51:48.067Z,24.02
2022-08-26T08:54:32.658Z,24.04
2022-08-26T08:57:24.510Z,24.08
2022-08-26T09:00:12.318Z,24.17
2022-08-26T09:03:00.366Z,24.23
2022-08-26T09:05:48.766Z,24.34
2022-08-26T09:08:36.973Z,24.47
2022-08-26T09:11:21.418Z,24.51
2022-08-26T09:14:06.022Z,24.55
2022-08-26T09:16:52.757Z,24.62
2022-08-26T09:19:41.231Z,24.77
2022-08-26T09:22:31.955Z,24.83
2022-08-26T09:25:17.116Z,24.82
2022-08-26T09:28:01.755Z,24.94
2022-08-26T09:30:54.624Z,25.17
2022-08-26T09:33:39.310Z,25.50
2022-08-26T09:36:26.303Z,25.77
2022-08-26T09:39:27.755Z,25.83
2022-08-26T09:42:16.808Z,25.85
2022-08-26T09:45:01.934Z,25.82
2022-08-26T09:47:56.041Z,25.78
2022-08-26T09:50:41.351Z,25.77
2022-08-26T09:53:31.015Z,25.77
2022-08-26T09:56:18.490Z,25.88
2022-08-26T09:59:03.894Z,25.96
2022-08-26T10:01:49.662Z,25.97
2022-08-26T10:04:32.878Z,26.02
2022-08-26T10:07:35.515Z,26.06
2022-08-26T10:10:24.566Z,26.05
2022-08-26T10:13:13.397Z,25.98
2022-08-26T10:16:02.842Z,25.84
2022-08-26T10:19:00.156Z,25.66
2022-08-26T10:21:46.962Z,25.46
2022-08-26T10:24:40.634Z,25.29
2022-08-26T10:27:33.012Z,25.17
2022-08-26T10:30:20.677Z,25.09
2022-08-26T10:33:08.858Z,25.10
2022-08-26T10:35:55.239Z,25.44
2022-08-26T10:38:41.698Z,25.78
2022-08-26T10:41:33.148Z,25.86
2022-08-26T10:44:19.219Z,25.74
2022-08-26T10:47:15.971Z,25.58
2022-08-26T10:50:03.410Z,25.42
2022-08-26T10:52:55.783Z,25.31
2022-08-26T10:55:55.972Z,25.18
2022-08-26T10:58:55.830Z,25.02
2022-08-26T11:01:44.180Z,24.82
2022-08-26T11:04:52.369Z,24.46
2022-08-26T11:07:41.835Z,23.80
2022-08-26T11:11:04.401Z,23.28
2022-08-26T11:14:01.707Z,22.73
2022-08-26T11:16:46.609Z,22.35
2022-08-26T11:20:09.172Z,22.15
2022-08-26T11:23:36.322Z,21.96
2022-08-26T11:26:35.669Z,21.97
2022-08-26T11:29:59.478Z,21.99
2022-08-26T11:32:51.999Z,22.07
2022-08-26T11:35:52.157Z,22.09
2022-08-26T11:38:35.501Z,22.01
2022-08-26T11:41:21.937Z,21.90
2022-08-26T11:44:09.220Z,21.70
2022-08-26T11:47:00.670Z,21.36
2022-08-26T11:49:43.698Z,21.01
2022-08-26T11:52:26.726Z,20.74
2022-08-26T11:55:12.150Z,20.59
2022-08-26T11:58:00.851Z,20.50
2022-08-26T12:00:52.388Z,20.43
2022-08-26T12:03:41.919Z,20.41
2022-08-26T12:06:29.179Z,20.39
2022-08-26T12:09:21.349Z,20.34
2022-08-26T12:12:13.152Z,20.23
2022-08-26T12:15:13.748Z,20.11
2022-08-26T12:17:56.818Z,19.97
2022-08-26T12:20:51.318Z,19.79
2022-08-26T12:23:43.359Z,19.38
2022-08-26T12:26:29.164Z,18.94
2022-08-26T12:29:27.154Z,18.80
2022-08-26T12:32:13.503Z,18.83
2022-08-26T12:34:56.934Z,18.73
2022-08-26T12:37:45.553Z,18.56
2022-08-26T12:40:35.811Z,18.57
2022-08-26T12:43:38.570Z,18.64
2022-08-26T12:46:28.622Z,18.62
2022-08-26T12:49:11.708Z,18.47
2022-08-26T12:51:54.726Z,18.13
2022-08-26T12:54:57.186Z,18.05
2022-08-26T12:57:40.290Z,18.16
2022-08-26T13:00:33.147Z,18.32
2022-08-26T13:03:44.792Z,18.49
2022-08-26T13:06:31.193Z,18.61
2022-08-26T13:09:32.089Z,18.72
2022-08-26T13:12:26.051Z,18.78
2022-08-26T13:15:09.740Z,18.78
2022-08-26T13:17:53.141Z,18.74
2022-08-26T13:20:44.118Z,18.62
2022-08-26T13:23:27.179Z,18.53
2022-08-26T13:26:10.206Z,18.51
2022-08-26T13:29:01.731Z,18.45
2022-08-26T13:31:46.872Z,18.44
2022-08-26T13:34:32.422Z,18.46
2022-08-26T13:37:15.446Z,18.51
2022-08-26T13:39:59.076Z,18.59
2022-08-26T13:42:49.399Z,18.68
2022-08-26T13:45:34.405Z,18.75
2022-08-26T13:48:21.565Z,18.78
2022-08-26T13:51:08.146Z,18.81
2022-08-26T13:53:52.986Z,18.74
2022-08-26T13:56:37.456Z,18.70
2022-08-26T13:59:20.550Z,18.67
2022-08-26T14:02:05.047Z,18.63
2022-08-26T14:04:48.126Z,18.60
2022-08-26T14:07:31.158Z,18.56
2022-08-26T14:10:14.140Z,18.49
2022-08-26T14:12:57.554Z,18.39
2022-08-26T14:15:40.778Z,18.27
2022-08-26T14:18:30.468Z,18.23
2022-08-26T14:21:15.125Z,18.21
2022-08-26T14:24:00.924Z,18.20
2022-08-26T14:26:44.374Z,18.20
2022-08-26T14:29:27.641Z,18.20
2022-08-26T14:32:15.427Z,18.21
2022-08-26T14:35:00.096Z,18.23
2022-08-26T14:37:43.228Z,18.27
2022-08-26T14:40:29.997Z,18.29
2022-08-26T14:43:15.218Z,18.30
2022-08-26T14:45:58.592Z,18.30
2022-08-26T14:48:41.553Z,18.30
2022-08-26T14:51:26.096Z,18.27
2022-08-26T14:54:16.244Z,18.28
2022-08-26T14:57:02.267Z,18.31
2022-08-26T14:59:50.091Z,18.38
2022-08-26T15:02:34.104Z,18.43
2022-08-26T15:05:17.330Z,18.52
2022-08-26T15:08:02.646Z,18.64
2022-08-26T15:10:45.737Z,18.70
2022-08-26T15:13:28.804Z,18.77
2022-08-26T15:16:11.901Z,18.86
2022-08-26T15:18:54.988Z,18.89
2022-08-26T15:21:38.284Z,18.89
2022-08-26T15:24:25.522Z,18.89
2022-08-26T15:27:09.046Z,18.93
2022-08-26T15:29:52.802Z,19.05
2022-08-26T15:32:36.144Z,19.21
2022-08-26T15:35:19.220Z,19.33
2022-08-26T15:38:02.835Z,19.43
2022-08-26T15:40:47.375Z,19.56
2022-08-26T15:43:30.500Z,19.71
2022-08-26T15:46:13.931Z,19.83
2022-08-26T15:48:57.054Z,19.95
2022-08-26T15:51:45.635Z,20.04
2022-08-26T15:54:29.591Z,20.14
2022-08-26T15:57:16.423Z,20.17
2022-08-26T16:00:01.899Z,20.16
2022-08-26T16:02:54.741Z,20.16
2022-08-26T16:05:39.082Z,20.14
2022-08-26T16:08:22.400Z,20.09
2022-08-26T16:11:05.938Z,20.03
2022-08-26T16:13:50.606Z,19.97
2022-08-26T16:16:33.630Z,19.97
2022-08-26T16:19:16.683Z,20.02
2022-08-26T16:21:59.711Z,20.07
2022-08-26T16:24:42.799Z,20.12
2022-08-26T16:27:25.814Z,20.16
2022-08-26T16:30:11.898Z,20.20
2022-08-26T16:32:55.663Z,20.18
2022-08-26T16:35:39.548Z,20.09
2022-08-26T16:38:22.614Z,19.98
2022-08-26T16:41:07.111Z,19.84
2022-08-26T16:43:50.474Z,19.72
2022-08-26T16:46:35.824Z,19.58
2022-08-26T16:49:19.190Z,19.48
2022-08-26T16:52:02.327Z,19.33
2022-08-26T16:54:45.433Z,19.26
2022-08-26T16:57:28.482Z,19.18
2022-08-26T17:00:17.303Z,19.12
2022-08-26T17:03:02.341Z,19.02
2022-08-26T17:05:45.514Z,18.98
2022-08-26T17:08:29.050Z,19.01
2022-08-26T17:11:12.614Z,19.01
2022-08-26T17:13:55.705Z,19.01
2022-08-26T17:16:39.035Z,18.97
2022-08-26T17:19:23.656Z,18.94
2022-08-26T17:22:08.276Z,18.89
2022-08-26T17:24:51.342Z,18.94
2022-08-26T17:27:34.342Z,18.90
2022-08-26T17:30:18.451Z,18.88
2022-08-26T17:33:01.466Z,18.92
2022-08-26T17:35:56.470Z,18.96
2022-08-26T17:38:39.772Z,19.01
2022-08-26T17:41:22.840Z,19.03
2022-08-26T17:44:06.756Z,19.01
2022-08-26T17:46:49.915Z,18.95
2022-08-26T17:49:33.109Z,18.87
2022-08-26T17:52:17.545Z,18.80
2022-08-26T17:55:00.560Z,18.72
2022-08-26T17:57:43.905Z,18.61
2022-08-26T18:00:36.660Z,18.57
2022-08-26T18:03:20.296Z,18.59
2022-08-26T18:06:04.086Z,18.59
2022-08-26T18:08:48.675Z,18.55
2022-08-26T18:11:32.824Z,18.56
2022-08-26T18:14:15.969Z,18.48
2022-08-26T18:16:59.022Z,18.41
2022-08-26T18:22:26.463Z,18.26
2022-08-26T18:25:12.687Z,18.17
2022-08-26T18:27:55.761Z,18.10
2022-08-26T18:30:39.301Z,18.05
2022-08-26T18:33:22.387Z,18.02
2022-08-26T18:36:06.239Z,17.97
2022-08-26T18:38:50.726Z,17.88
2022-08-26T18:41:43.412Z,17.81
2022-08-26T18:44:26.487Z,17.74
2022-08-26T18:47:09.584Z,17.70
2022-08-26T18:49:52.733Z,17.68
2022-08-26T18:52:35.846Z,17.61
2022-08-26T18:55:18.911Z,17.60
2022-08-26T18:58:03.404Z,17.58
2022-08-26T19:00:46.576Z,17.55
2022-08-26T19:03:29.667Z,17.50
2022-08-26T19:06:15.376Z,17.44
2022-08-26T19:08:58.530Z,17.41
2022-08-26T19:11:43.017Z,17.38
2022-08-26T19:14:27.500Z,17.36
2022-08-26T19:17:11.785Z,17.36
2022-08-26T19:19:54.919Z,17.31
2022-08-26T19:22:37.962Z,17.26
2022-08-26T19:25:20.985Z,17.20
2022-08-26T19:28:04.272Z,17.17
2022-08-26T19:30:53.387Z,17.13
2022-08-26T19:33:37.216Z,17.10
2022-08-26T19:36:22.840Z,17.03
2022-08-26T19:39:07.731Z,17.07
2022-08-26T19:41:51.782Z,17.03
2022-08-26T19:44:52.330Z,17.01
2022-08-26T19:47:37.069Z,16.98
2022-08-26T19:50:19.938Z,16.94
2022-08-26T19:53:04.118Z,16.87
2022-08-26T19:55:47.170Z,16.84
2022-08-26T19:58:30.189Z,16.86
2022-08-26T20:01:14.663Z,16.88
2022-08-26T20:03:59.075Z,16.90
2022-08-26T20:06:42.171Z,16.89
2022-08-26T20:09:25.247Z,16.86
2022-08-26T20:12:09.371Z,16.95
2022-08-26T20:14:52.444Z,17.03
2022-08-26T20:17:35.737Z,17.09
2022-08-26T20:20:37.877Z,17.15
2022-08-26T20:23:21.076Z,17.17
2022-08-26T20:26:04.539Z,17.16
2022-08-26T20:28:47.558Z,17.20
2022-08-26T20:31:35.128Z,17.18
2022-08-26T20:34:19.507Z,17.15
2022-08-26T20:37:04.667Z,17.14
2022-08-26T20:39:48.633Z,17.16
2022-08-26T20:42:31.966Z,17.22
2022-08-26T20:45:15.009Z,17.20
2022-08-26T20:47:58.122Z,17.16
2022-08-26T20:50:41.275Z,17.11
2022-08-26T20:53:25.959Z,17.05
2022-08-26T20:56:10.456Z,16.98
2022-08-26T20:58:55.461Z,16.93
2022-08-26T21:01:42.083Z,16.89
2022-08-26T21:04:27.525Z,16.88
2022-08-26T21:07:10.634Z,16.83
2022-08-26T21:09:55.021Z,16.78
2022-08-26T21:12:38.403Z,16.68
2022-08-26T21:15:22.164Z,16.62
2022-08-26T21:18:05.960Z,16.60
2022-08-26T21:20:49.028Z,16.58
2022-08-26T21:23:32.523Z,16.58
2022-08-26T21:26:18.005Z,16.61
2022-08-26T21:29:02.478Z,16.63
2022-08-26T21:31:46.682Z,16.65
2022-08-26T21:34:30.067Z,16.71
2022-08-26T21:37:15.381Z,16.78
2022-08-26T21:40:01.941Z,16.79
2022-08-26T21:42:46.531Z,16.77
2022-08-26T21:45:31.037Z,16.71
2022-08-26T21:48:14.132Z,16.69
2022-08-26T21:50:58.090Z,16.68
2022-08-26T21:53:41.698Z,16.67
2022-08-26T21:56:26.882Z,16.65
2022-08-26T21:59:11.994Z,16.61
2022-08-26T22:01:55.352Z,16.59
2022-08-26T22:04:38.421Z,16.62
2022-08-26T22:07:21.435Z,16.63
2022-08-26T22:10:05.039Z,16.65
2022-08-26T22:12:48.157Z,16.67
2022-08-26T22:15:35.387Z,16.68
2022-08-26T22:18:21.429Z,16.67
2022-08-26T22:21:06.667Z,16.67
2022-08-26T22:23:49.744Z,16.64
2022-08-26T22:26:34.178Z,16.61
2022-08-26T22:29:17.389Z,16.59
2022-08-26T22:32:02.514Z,16.56
2022-08-26T22:34:45.800Z,16.58
2022-08-26T22:37:28.835Z,16.56
2022-08-26T22:40:13.205Z,16.53
2022-08-26T22:42:58.804Z,16.50
2022-08-26T22:45:45.806Z,16.45
2022-08-26T22:48:30.240Z,16.43
2022-08-26T22:51:13.689Z,16.42
2022-08-26T22:53:56.743Z,16.34
2022-08-26T22:56:40.826Z,16.35
2022-08-26T22:59:24.542Z,16.36
2022-08-26T23:02:07.901Z,16.35
2022-08-26T23:04:56.005Z,16.25
2022-08-26T23:07:39.230Z,16.29
2022-08-26T23:10:22.596Z,16.30
2022-08-26T23:13:08.153Z,16.28
2022-08-26T23:16:00.149Z,16.30
2022-08-26T23:18:43.218Z,16.29
2022-08-26T23:21:27.648Z,16.29
2022-08-26T23:24:12.111Z,16.26
2022-08-26T23:26:55.147Z,16.26
2022-08-26T23:29:39.759Z,16.30
2022-08-26T23:32:23.125Z,16.33
2022-08-26T23:35:05.994Z,16.37
2022-08-26T23:37:52.973Z,16.39
2022-08-26T23:40:37.499Z,16.42
2022-08-26T23:43:20.583Z,16.43
2022-08-26T23:46:03.713Z,16.44
2022-08-26T23:48:47.012Z,16.44
2022-08-26T23:51:48.239Z,16.44
2022-08-26T23:54:33.185Z,16.48
2022-08-26T23:57:17.367Z,16.53
